createdAt,value
2023-05-22T00:00:41.677Z,23.23
2023-05-22T00:03:10.719Z,25.73
2023-05-22T00:05:39.112Z,25.88
2023-05-22T00:08:11.566Z,22.10
2023-05-22T00:10:39.415Z,21.45
2023-05-22T00:13:07.203Z,21.83
2023-05-22T00:15:35.130Z,27.15
2023-05-22T00:18:04.232Z,23.63
2023-05-22T00:20:31.782Z,26.23
2023-05-22T00:23:01.265Z,25.10
2023-05-22T00:25:28.849Z,27.80
2023-05-22T00:27:56.526Z,28.27
2023-05-22T00:30:24.159Z,27.77
2023-05-22T00:32:51.767Z,31.70
2023-05-22T00:35:20.918Z,25.20
2023-05-22T00:37:48.623Z,26.90
2023-05-22T00:40:16.717Z,24.08
2023-05-22T00:42:44.517Z,25.38
2023-05-22T00:45:12.790Z,23.20
2023-05-22T00:47:40.497Z,24.77
2023-05-22T00:50:08.798Z,24.60
2023-05-22T00:52:39.075Z,25.02
2023-05-22T00:55:07.329Z,27.67
2023-05-22T00:57:34.876Z,27.75
2023-05-22T01:00:03.908Z,25.98
2023-05-22T01:02:33.020Z,26.42
2023-05-22T01:05:00.914Z,27.95
2023-05-22T01:07:28.781Z,26.52
2023-05-22T01:09:58.165Z,28.80
2023-05-22T01:12:29.008Z,31.92
2023-05-22T01:14:59.878Z,26.67
2023-05-22T01:17:34.812Z,29.40
2023-05-22T01:20:10.274Z,29.23
2023-05-22T01:23:11.204Z,32.60
2023-05-22T01:25:59.686Z,26.88
2023-05-22T01:28:38.100Z,29.40
2023-05-22T01:31:09.152Z,27.05
2023-05-22T01:33:45.499Z,26.05
2023-05-22T01:36:13.990Z,27.48
2023-05-22T01:38:42.141Z,28.63
2023-05-22T01:41:10.051Z,24.40
2023-05-22T01:43:37.804Z,27.75
2023-05-22T01:46:07.508Z,26.63
2023-05-22T01:48:35.154Z,30.17
2023-05-22T01:51:06.339Z,28.08
2023-05-22T01:53:35.838Z,28.38
2023-05-22T01:56:07.687Z,28.55
2023-05-22T01:58:38.699Z,25.88
2023-05-22T02:01:09.266Z,28.50
2023-05-22T02:03:37.411Z,34.13
2023-05-22T02:06:06.859Z,32.97
2023-05-22T02:08:34.678Z,31.00
2023-05-22T02:11:03.010Z,27.23
2023-05-22T02:13:30.898Z,27.13
2023-05-22T02:15:58.864Z,28.52
2023-05-22T02:18:31.120Z,31.25
2023-05-22T02:20:59.056Z,28.95
2023-05-22T02:23:26.932Z,28.70
2023-05-22T02:25:55.463Z,30.05
2023-05-22T02:28:23.000Z,30.85
2023-05-22T02:30:50.634Z,27.70
2023-05-22T02:33:18.768Z,29.38
2023-05-22T02:35:47.706Z,32.03
2023-05-22T02:38:15.290Z,30.20
2023-05-22T02:40:42.810Z,28.83
2023-05-22T02:43:10.446Z,32.05
2023-05-22T02:45:37.982Z,30.75
2023-05-22T02:48:05.865Z,36.83
2023-05-22T02:50:33.493Z,34.90
2023-05-22T02:53:02.346Z,33.40
2023-05-22T02:55:29.869Z,32.38
2023-05-22T02:57:59.321Z,32.85
2023-05-22T03:00:26.934Z,33.20
2023-05-22T03:02:54.567Z,31.75
2023-05-22T03:05:22.317Z,32.65
2023-05-22T03:07:50.072Z,32.05
2023-05-22T03:10:19.035Z,30.05
2023-05-22T03:12:46.634Z,30.95
2023-05-22T03:15:14.212Z,29.08
2023-05-22T03:17:41.814Z,27.35
2023-05-22T03:20:10.094Z,32.17
2023-05-22T03:22:37.717Z,30.75
2023-05-22T03:25:06.586Z,30.17
2023-05-22T03:27:35.662Z,26.95
2023-05-22T03:30:03.594Z,27.48
2023-05-22T03:32:31.222Z,28.95
2023-05-22T03:34:59.617Z,25.63
2023-05-22T03:37:27.340Z,27.42
2023-05-22T03:39:54.891Z,27.85
2023-05-22T03:42:22.571Z,26.02
2023-05-22T03:44:51.556Z,28.90
2023-05-22T03:47:19.166Z,31.48
2023-05-22T03:49:46.941Z,26.33
2023-05-22T03:52:14.502Z,26.38
2023-05-22T03:54:42.037Z,23.17
2023-05-22T03:57:09.602Z,24.13
2023-05-22T03:59:37.161Z,25.23
2023-05-22T04:02:06.739Z,28.83
2023-05-22T04:04:38.510Z,27.52
2023-05-22T04:07:08.356Z,28.55
2023-05-22T04:09:36.343Z,25.95
2023-05-22T04:12:03.927Z,31.67
2023-05-22T04:14:32.656Z,25.13
2023-05-22T04:17:00.235Z,27.55
2023-05-22T04:19:30.201Z,27.50
2023-05-22T04:21:58.889Z,30.45
2023-05-22T04:24:27.591Z,30.38
2023-05-22T04:26:55.175Z,29.98
2023-05-22T04:29:22.823Z,35.70
2023-05-22T04:31:50.468Z,26.27
2023-05-22T04:34:18.499Z,24.23
2023-05-22T04:36:48.104Z,27.23
2023-05-22T04:39:16.052Z,27.17
2023-05-22T04:41:43.578Z,33.83
2023-05-22T04:44:21.992Z,24.35
2023-05-22T04:46:49.611Z,29.15
2023-05-22T04:49:17.553Z,27.10
2023-05-22T04:51:45.307Z,25.65
2023-05-22T04:54:14.300Z,30.52
2023-05-22T04:56:41.930Z,29.25
2023-05-22T04:59:10.343Z,29.67
2023-05-22T05:01:38.439Z,30.15
2023-05-22T05:04:06.328Z,30.13
2023-05-22T05:06:34.702Z,25.63
2023-05-22T05:09:02.414Z,31.38
2023-05-22T05:11:31.390Z,28.17
2023-05-22T05:13:59.057Z,27.58
2023-05-22T05:16:26.655Z,27.05
2023-05-22T05:18:55.659Z,25.67
2023-05-22T05:21:23.316Z,28.02
2023-05-22T05:23:52.067Z,26.27
2023-05-22T05:26:21.778Z,27.50
2023-05-22T05:28:51.420Z,26.55
2023-05-22T05:31:19.447Z,27.45
2023-05-22T05:33:47.149Z,24.25
2023-05-22T05:36:14.808Z,28.92
2023-05-22T05:38:42.455Z,29.33
2023-05-22T05:41:10.005Z,24.45
2023-05-22T05:43:37.589Z,26.08
2023-05-22T05:46:07.646Z,23.17
2023-05-22T05:48:35.440Z,27.98
2023-05-22T05:51:03.139Z,28.15
2023-05-22T05:53:30.904Z,24.83
2023-05-22T05:55:58.569Z,25.10
2023-05-22T05:58:26.118Z,24.08
2023-05-22T06:00:53.839Z,23.35
2023-05-22T06:03:22.879Z,21.33
2023-05-22T06:05:51.176Z,27.85
2023-05-22T06:08:19.838Z,21.45
2023-05-22T06:10:47.479Z,25.95
2023-05-22T06:13:15.095Z,20.88
2023-05-22T06:15:42.634Z,21.88
2023-05-22T06:18:10.215Z,20.58
2023-05-22T06:20:39.591Z,21.45
2023-05-22T06:23:07.367Z,17.45
2023-05-22T06:25:35.129Z,20.23
2023-05-22T06:28:02.998Z,18.23
2023-05-22T06:30:39.631Z,20.58
2023-05-22T06:33:08.195Z,21.98
2023-05-22T06:35:35.864Z,19.00
2023-05-22T06:38:04.927Z,20.80
2023-05-22T06:40:32.488Z,21.23
2023-05-22T06:43:00.069Z,19.08
2023-05-22T06:45:27.605Z,18.60
2023-05-22T06:47:55.215Z,19.52
2023-05-22T06:50:23.102Z,19.13
2023-05-22T06:52:50.703Z,26.90
2023-05-22T06:55:19.704Z,19.20
2023-05-22T06:57:47.265Z,18.10
2023-05-22T07:00:15.491Z,20.23
2023-05-22T07:02:43.111Z,23.85
2023-05-22T07:05:10.675Z,21.13
2023-05-22T07:07:38.188Z,24.55
2023-05-22T07:10:06.465Z,20.55
2023-05-22T07:12:35.362Z,21.95
2023-05-22T07:15:02.959Z,19.77
2023-05-22T07:17:31.866Z,19.55
2023-05-22T07:19:59.495Z,23.10
2023-05-22T07:22:27.076Z,21.08
2023-05-22T07:24:54.624Z,19.80
2023-05-22T07:27:22.117Z,18.98
2023-05-22T07:29:51.125Z,19.45
2023-05-22T07:32:18.663Z,21.85
2023-05-22T07:34:46.299Z,19.98
2023-05-22T07:37:14.228Z,18.80
2023-05-22T07:39:41.933Z,19.70
2023-05-22T07:42:09.634Z,23.02
2023-05-22T07:44:37.234Z,21.05
2023-05-22T07:47:07.854Z,20.08
2023-05-22T07:49:50.466Z,19.23
2023-05-22T07:52:19.182Z,19.33
2023-05-22T07:54:57.868Z,17.05
2023-05-22T07:57:39.343Z,22.20
2023-05-22T08:00:13.742Z,19.65
2023-05-22T08:02:43.326Z,20.48
2023-05-22T08:05:11.748Z,19.90
2023-05-22T08:07:39.465Z,17.40
2023-05-22T08:10:09.102Z,18.50
2023-05-22T08:12:36.654Z,17.83
2023-05-22T08:15:04.705Z,16.35
2023-05-22T08:17:33.007Z,14.10
2023-05-22T08:20:02.241Z,17.23
2023-05-22T08:22:30.999Z,16.13
2023-05-22T08:24:58.768Z,15.52
2023-05-22T08:27:26.432Z,17.75
2023-05-22T08:29:53.988Z,22.00
2023-05-22T08:32:21.621Z,18.98
2023-05-22T08:34:49.245Z,15.70
2023-05-22T08:37:18.199Z,17.90
2023-05-22T08:39:45.816Z,17.02
2023-05-22T08:42:13.465Z,17.45
2023-05-22T08:44:41.094Z,15.48
2023-05-22T08:47:11.426Z,17.45
2023-05-22T08:49:39.935Z,17.70
2023-05-22T08:52:09.613Z,16.13
2023-05-22T08:54:41.053Z,17.67
2023-05-22T08:57:08.771Z,16.17
2023-05-22T08:59:37.166Z,16.30
2023-05-22T09:02:06.773Z,18.30
2023-05-22T09:04:34.593Z,22.00
2023-05-22T09:07:05.983Z,14.82
2023-05-22T09:09:34.007Z,19.15
2023-05-22T09:12:03.040Z,17.40
2023-05-22T09:14:38.851Z,18.00
2023-05-22T09:17:06.727Z,15.30
2023-05-22T09:19:34.670Z,16.85
2023-05-22T09:22:06.278Z,17.58
2023-05-22T09:24:39.176Z,16.77
2023-05-22T09:27:09.018Z,17.63
2023-05-22T09:29:49.402Z,16.80
2023-05-22T09:32:17.231Z,19.02
2023-05-22T09:34:45.231Z,20.50
2023-05-22T09:37:12.993Z,18.75
2023-05-22T09:39:41.452Z,16.73
2023-05-22T09:42:11.725Z,19.70
2023-05-22T09:44:40.039Z,20.73
2023-05-22T09:47:08.014Z,18.00
2023-05-22T09:49:51.983Z,16.98
2023-05-22T09:52:22.192Z,15.75
2023-05-22T09:57:49.720Z,20.38
2023-05-22T10:00:25.359Z,18.13
2023-05-22T10:02:54.643Z,21.15
2023-05-22T10:05:22.998Z,20.98
2023-05-22T10:07:51.971Z,17.30
2023-05-22T10:10:21.914Z,18.27
2023-05-22T10:13:01.232Z,13.02
2023-05-22T10:15:42.096Z,17.02
2023-05-22T10:18:11.718Z,16.60
2023-05-22T10:20:54.737Z,14.77
2023-05-22T10:23:25.374Z,14.40
2023-05-22T10:25:53.340Z,17.10
2023-05-22T10:28:24.735Z,14.30
2023-05-22T10:31:01.399Z,18.45
2023-05-22T10:33:31.052Z,13.35
2023-05-22T10:36:19.904Z,14.27
2023-05-22T10:39:05.275Z,14.55
2023-05-22T10:41:34.850Z,13.48
2023-05-22T10:44:03.776Z,14.20
2023-05-22T10:46:33.342Z,13.80
2023-05-22T10:49:01.439Z,12.50
2023-05-22T10:51:29.093Z,14.73
2023-05-22T10:54:00.974Z,14.35
2023-05-22T10:56:33.893Z,13.70
2023-05-22T10:59:31.083Z,11.32
2023-05-22T11:05:30.591Z,12.30
2023-05-22T11:08:10.116Z,11.98
2023-05-22T11:10:55.267Z,15.95
2023-05-22T11:13:29.769Z,11.73
2023-05-22T11:15:58.807Z,14.82
2023-05-22T11:18:31.867Z,12.18
2023-05-22T11:21:02.384Z,10.98
2023-05-22T11:23:30.069Z,10.52
2023-05-22T11:26:18.093Z,13.43
2023-05-22T11:28:49.795Z,10.27
2023-05-22T11:31:22.444Z,13.00
2023-05-22T11:34:05.512Z,17.92
2023-05-22T11:36:33.483Z,14.45
2023-05-22T11:39:01.056Z,14.20
2023-05-22T11:41:35.793Z,12.40
2023-05-22T11:44:03.531Z,10.80
2023-05-22T11:46:32.788Z,10.60
2023-05-22T11:49:01.803Z,10.35
2023-05-22T11:51:29.541Z,12.43
2023-05-22T11:54:03.325Z,11.93
2023-05-22T11:56:32.948Z,10.20
2023-05-22T11:59:00.687Z,11.57
2023-05-22T12:01:28.348Z,12.88
2023-05-22T12:04:11.188Z,9.73
2023-05-22T12:06:42.031Z,9.25
2023-05-22T12:09:10.057Z,23.73
2023-05-22T12:11:38.228Z,13.55
2023-05-22T12:14:12.914Z,15.20
2023-05-22T12:16:41.909Z,28.27
2023-05-22T12:19:12.009Z,10.70
2023-05-22T12:21:41.880Z,9.00
2023-05-22T12:24:09.792Z,11.93
2023-05-22T12:26:37.455Z,15.48
2023-05-22T12:29:06.982Z,12.68
2023-05-22T12:31:39.064Z,12.88
2023-05-22T12:34:08.055Z,11.80
2023-05-22T12:36:39.643Z,10.07
2023-05-22T12:39:09.325Z,10.10
2023-05-22T12:41:39.464Z,10.43
2023-05-22T12:44:07.642Z,10.85
2023-05-22T12:46:35.976Z,9.85
2023-05-22T12:49:03.738Z,9.38
2023-05-22T12:51:33.560Z,8.77
2023-05-22T12:54:06.531Z,10.30
2023-05-22T12:56:34.321Z,13.20
2023-05-22T12:59:02.121Z,9.88
2023-05-22T13:01:29.784Z,23.67
2023-05-22T13:03:57.407Z,31.65
2023-05-22T13:06:24.980Z,7.85
2023-05-22T13:08:52.929Z,10.40
2023-05-22T13:11:23.508Z,9.63
2023-05-22T13:13:51.439Z,11.30
2023-05-22T13:16:24.641Z,13.43
2023-05-22T13:18:58.205Z,13.73
2023-05-22T13:21:26.750Z,29.00
2023-05-22T13:23:54.615Z,10.85
2023-05-22T13:26:23.919Z,8.90
2023-05-22T13:28:51.430Z,14.30
2023-05-22T13:31:19.019Z,10.32
2023-05-22T13:33:46.809Z,11.13
2023-05-22T13:36:14.513Z,10.02
2023-05-22T13:38:42.053Z,9.88
2023-05-22T13:41:13.715Z,9.95
2023-05-22T13:43:42.606Z,8.10
2023-05-22T13:46:10.197Z,9.23
2023-05-22T13:48:37.871Z,13.52
2023-05-22T13:51:05.941Z,8.50
2023-05-22T13:53:33.705Z,10.57
2023-05-22T13:56:04.865Z,10.65
2023-05-22T13:58:32.641Z,10.55
2023-05-22T14:01:01.752Z,9.93
2023-05-22T14:03:29.369Z,10.50
2023-05-22T14:05:56.974Z,11.23
2023-05-22T14:08:25.495Z,8.98
2023-05-22T14:10:53.162Z,10.80
2023-05-22T14:13:20.718Z,15.55
2023-05-22T14:15:48.673Z,8.40
2023-05-22T14:18:20.724Z,10.75
2023-05-22T14:20:54.397Z,9.68
2023-05-22T14:23:22.266Z,8.05
2023-05-22T14:25:49.798Z,9.30
2023-05-22T14:28:17.393Z,8.40
2023-05-22T14:30:46.308Z,10.73
2023-05-22T14:33:16.053Z,11.30
2023-05-22T14:35:45.471Z,12.40
2023-05-22T14:38:15.442Z,10.02
2023-05-22T14:40:43.011Z,9.75
2023-05-22T14:43:54.521Z,10.95
2023-05-22T14:46:22.066Z,8.85
2023-05-22T14:48:49.782Z,8.65
2023-05-22T14:51:33.708Z,6.97
2023-05-22T14:54:06.897Z,9.38
2023-05-22T14:56:34.784Z,9.68
2023-05-22T14:59:14.882Z,8.13
2023-05-22T15:01:42.683Z,9.98
2023-05-22T15:04:46.408Z,9.57
2023-05-22T15:07:43.928Z,9.38
2023-05-22T15:10:20.781Z,9.40
2023-05-22T15:12:48.840Z,10.75
2023-05-22T15:15:16.451Z,10.80
2023-05-22T15:17:47.049Z,17.13
2023-05-22T15:20:17.618Z,12.13
2023-05-22T15:22:46.890Z,9.88
2023-05-22T15:25:16.319Z,8.45
2023-05-22T15:28:02.699Z,9.20
2023-05-22T15:30:55.536Z,9.48
2023-05-22T15:33:23.314Z,11.38
2023-05-22T15:35:59.482Z,13.13
2023-05-22T15:38:29.271Z,14.02
2023-05-22T15:40:58.972Z,19.75
2023-05-22T15:43:27.570Z,20.55
2023-05-22T15:45:55.185Z,15.63
2023-05-22T15:48:34.726Z,13.43
2023-05-22T15:51:03.360Z,28.70
2023-05-22T15:53:32.817Z,26.52
2023-05-22T15:56:38.612Z,29.73
2023-05-22T15:58:56.623Z,25.88
2023-05-22T16:04:07.588Z,29.08
2023-05-22T16:06:37.855Z,27.08
2023-05-22T16:09:08.011Z,36.25
2023-05-22T16:11:37.861Z,29.15
2023-05-22T16:14:35.812Z,31.77
2023-05-22T16:17:04.218Z,26.55
2023-05-22T16:19:37.490Z,26.02
2023-05-22T16:22:05.629Z,28.67
2023-05-22T16:25:04.045Z,31.05
2023-05-22T16:27:34.571Z,31.27
2023-05-22T16:30:03.553Z,29.98
2023-05-22T16:33:23.947Z,24.17
2023-05-22T16:35:56.776Z,20.88
2023-05-22T16:38:24.514Z,21.33
2023-05-22T16:40:55.027Z,18.13
2023-05-22T16:43:25.256Z,20.70
2023-05-22T16:46:13.936Z,17.27
2023-05-22T16:48:45.231Z,18.52
2023-05-22T16:51:13.000Z,17.83
2023-05-22T16:53:41.171Z,17.25
2023-05-22T16:56:11.200Z,18.30
2023-05-22T16:58:43.782Z,22.52
2023-05-22T17:01:15.091Z,17.65
2023-05-22T17:03:42.849Z,14.68
2023-05-22T17:06:13.085Z,19.83
2023-05-22T17:08:47.432Z,17.55
2023-05-22T17:11:16.340Z,16.38
2023-05-22T17:13:43.900Z,17.13
2023-05-22T17:16:11.678Z,23.20
2023-05-22T17:18:39.457Z,18.60
2023-05-22T17:21:09.369Z,17.73
2023-05-22T17:23:41.601Z,17.92
2023-05-22T17:26:40.359Z,15.70
2023-05-22T17:29:10.900Z,16.20
2023-05-22T17:31:39.800Z,18.13
2023-05-22T17:34:07.497Z,18.48
2023-05-22T17:36:35.048Z,19.67
2023-05-22T17:39:03.147Z,16.38
2023-05-22T17:41:31.231Z,17.67
2023-05-22T17:44:00.936Z,18.00
2023-05-22T17:46:31.457Z,16.83
2023-05-22T17:48:59.288Z,17.73
2023-05-22T17:51:27.184Z,18.40
2023-05-22T17:53:56.320Z,20.42
2023-05-22T17:56:24.514Z,20.20
2023-05-22T17:58:53.152Z,18.27
2023-05-22T18:01:24.975Z,16.55
2023-05-22T18:03:54.092Z,19.33
2023-05-22T18:06:24.111Z,16.70
2023-05-22T18:08:52.077Z,15.15
2023-05-22T18:11:20.030Z,14.98
2023-05-22T18:13:47.992Z,16.88
2023-05-22T18:16:18.236Z,16.45
2023-05-22T18:18:46.004Z,15.38
2023-05-22T18:21:15.128Z,17.60
2023-05-22T18:23:43.085Z,18.08
2023-05-22T18:26:10.871Z,16.27
2023-05-22T18:28:38.669Z,15.27
2023-05-22T18:31:06.362Z,14.50
2023-05-22T18:33:34.429Z,15.77
2023-05-22T18:36:02.381Z,19.13
2023-05-22T18:38:31.812Z,17.10
2023-05-22T18:40:59.607Z,16.30
2023-05-22T18:43:28.272Z,19.23
2023-05-22T18:45:56.777Z,18.77
2023-05-22T18:48:24.904Z,19.33
2023-05-22T18:50:52.807Z,20.08
2023-05-22T18:53:20.422Z,18.30
2023-05-22T18:55:49.553Z,22.15
2023-05-22T18:58:17.205Z,20.95
2023-05-22T19:00:45.698Z,21.65
2023-05-22T19:03:14.121Z,20.17
2023-05-22T19:05:42.011Z,22.42
2023-05-22T19:08:09.658Z,19.08
2023-05-22T19:10:37.513Z,20.40
2023-05-22T19:13:06.510Z,20.75
2023-05-22T19:15:35.814Z,20.48
2023-05-22T19:18:03.579Z,21.98
2023-05-22T19:20:31.248Z,22.63
2023-05-22T19:22:59.066Z,21.35
2023-05-22T19:25:27.816Z,20.05
2023-05-22T19:27:55.400Z,23.05
2023-05-22T19:30:24.457Z,20.05
2023-05-22T19:32:55.838Z,22.38
2023-05-22T19:35:23.573Z,23.80
2023-05-22T19:37:51.224Z,23.00
2023-05-22T19:40:18.841Z,22.88
2023-05-22T19:42:46.485Z,22.92
2023-05-22T19:45:14.203Z,25.45
2023-05-22T19:47:43.386Z,24.60
2023-05-22T19:50:11.674Z,26.10
2023-05-22T19:52:39.392Z,24.40
2023-05-22T19:55:07.767Z,24.77
2023-05-22T19:57:37.235Z,23.75
2023-05-22T20:00:10.213Z,23.88
2023-05-22T20:02:38.136Z,24.17
2023-05-22T20:05:13.033Z,27.45
2023-05-22T20:07:42.532Z,24.33
2023-05-22T20:10:10.818Z,28.55
2023-05-22T20:12:38.517Z,23.98
2023-05-22T20:15:08.232Z,24.90
2023-05-22T20:17:36.315Z,23.60
2023-05-22T20:20:08.859Z,28.95
2023-05-22T20:22:38.377Z,27.20
2023-05-22T20:25:07.545Z,26.02
2023-05-22T20:27:35.603Z,25.55
2023-05-22T20:30:03.499Z,27.27
2023-05-22T20:32:31.265Z,23.67
2023-05-22T20:35:00.394Z,27.55
2023-05-22T20:37:29.575Z,28.70
2023-05-22T20:40:03.621Z,31.30
2023-05-22T20:42:31.763Z,26.08
2023-05-22T20:44:59.737Z,26.38
2023-05-22T20:47:27.351Z,25.98
2023-05-22T20:49:55.034Z,28.20
2023-05-22T20:52:23.717Z,25.65
2023-05-22T20:54:51.355Z,27.80
2023-05-22T20:57:20.437Z,31.55
2023-05-22T20:59:48.010Z,31.85
2023-05-22T21:02:15.623Z,28.15
2023-05-22T21:04:43.323Z,30.92
2023-05-22T21:07:10.953Z,28.73
2023-05-22T21:09:38.950Z,28.02
2023-05-22T21:12:08.199Z,27.52
2023-05-22T21:14:37.684Z,33.50
2023-05-22T21:17:05.477Z,30.80
2023-05-22T21:19:33.699Z,27.80
2023-05-22T21:22:01.398Z,29.67
2023-05-22T21:24:29.047Z,25.42
2023-05-22T21:26:56.648Z,33.75
2023-05-22T21:29:24.308Z,27.27
2023-05-22T21:31:53.502Z,26.60
2023-05-22T21:34:21.152Z,29.25
2023-05-22T21:36:48.721Z,37.88
2023-05-22T21:39:16.708Z,28.77
2023-05-22T21:41:44.653Z,27.17
2023-05-22T21:44:13.586Z,27.95
2023-05-22T21:46:41.201Z,27.17
2023-05-22T21:49:19.981Z,26.17
2023-05-22T21:51:51.412Z,27.95
2023-05-22T21:54:19.060Z,29.38
2023-05-22T21:56:47.069Z,33.65
2023-05-22T21:59:14.947Z,26.88
2023-05-22T22:01:42.538Z,27.38
2023-05-22T22:04:10.200Z,30.33
2023-05-22T22:06:37.958Z,31.85
2023-05-22T22:09:06.784Z,26.90
2023-05-22T22:11:34.341Z,28.05
2023-05-22T22:14:03.585Z,29.33
2023-05-22T22:16:35.816Z,31.60
2023-05-22T22:19:03.954Z,23.92
2023-05-22T22:21:33.505Z,29.05
2023-05-22T22:24:01.192Z,30.45
2023-05-22T22:26:31.088Z,32.50
2023-05-22T22:28:58.630Z,32.17
2023-05-22T22:31:27.159Z,26.88
2023-05-22T22:33:54.731Z,25.55
2023-05-22T22:36:22.836Z,24.88
2023-05-22T22:38:50.536Z,27.73
2023-05-22T22:41:18.207Z,26.52
2023-05-22T22:43:47.121Z,26.77
2023-05-22T22:46:14.772Z,29.40
2023-05-22T22:48:42.728Z,23.75
2023-05-22T22:51:10.503Z,22.67
2023-05-22T22:53:38.384Z,22.90
2023-05-22T22:56:06.967Z,23.98
2023-05-22T22:58:34.532Z,27.98
2023-05-22T23:01:05.611Z,25.23
2023-05-22T23:03:33.205Z,25.15
2023-05-22T23:06:00.871Z,26.60
2023-05-22T23:08:28.462Z,23.98
2023-05-22T23:10:56.154Z,22.27
2023-05-22T23:13:23.836Z,24.40
2023-05-22T23:15:51.657Z,27.60
2023-05-22T23:18:20.877Z,21.83
2023-05-22T23:20:48.578Z,24.23
2023-05-22T23:23:16.184Z,24.17
2023-05-22T23:25:43.792Z,25.17
2023-05-22T23:28:11.750Z,30.80
2023-05-22T23:30:39.425Z,24.02
2023-05-22T23:33:07.709Z,24.33
2023-05-22T23:35:36.869Z,25.42
2023-05-22T23:38:04.484Z,28.45
2023-05-22T23:40:32.029Z,28.08
2023-05-22T23:42:59.624Z,25.38
2023-05-22T23:45:27.551Z,26.08
2023-05-22T23:47:55.065Z,29.02
2023-05-22T23:50:22.612Z,26.52
2023-05-22T23:52:51.488Z,28.10
2023-05-22T23:55:19.140Z,27.48
2023-05-22T23:57:47.157Z,24.75
